Time;durP1;ratioP1;P1;durP2;ratioP2;P2;SDS_P1;SDS_P2;PMS_P1;PMS_P2;Temp;Humidity;BMP_temperature;BMP_pressure;BME280_temperature;BME280_humidity;BME280_pressure;Samples;Min_cycle;Max_cycle;Signal;HPM_P1;HPM_P2
2022/01/27 00:05:27;;;;;;;51.60;36.55;;;;;;;5.98;75.36;102367.03;5006568;28;20046;-81
2022/01/27 00:13:01;;;;;;;48.47;35.08;;;;;;;5.96;76.29;102368.00;5046231;28;20236;-80
2022/01/27 00:15:31;;;;;;;50.33;34.92;;;;;;;6.13;76.08;102412.13;5044664;28;20409;-81
2022/01/27 00:18:02;;;;;;;55.10;36.83;;;;;;;5.90;76.05;102373.53;5045399;28;20144;-81
2022/01/27 00:20:31;;;;;;;49.90;35.60;;;;;;;5.89;76.55;102377.06;5044840;28;20051;-80
2022/01/27 00:22:58;;;;;;;51.63;35.92;;;;;;;5.96;76.73;102391.75;5044847;28;20080;-80
2022/01/27 00:25:24;;;;;;;50.17;34.78;;;;;;;5.95;76.54;102382.13;5045105;28;20533;-81
2022/01/27 00:27:52;;;;;;;54.35;37.70;;;;;;;5.98;76.76;102388.13;5045062;28;20055;-80
2022/01/27 00:30:18;;;;;;;54.08;37.80;;;;;;;6.05;76.79;102394.00;5045282;28;20041;-83
2022/01/27 00:32:45;;;;;;;51.42;36.67;;;;;;;5.91;76.78;102364.69;5046574;28;20085;-83
2022/01/27 00:35:12;;;;;;;49.90;36.67;;;;;;;6.03;76.50;102401.13;5045283;28;20131;-81
2022/01/27 00:37:40;;;;;;;50.67;35.92;;;;;;;6.01;76.20;102365.19;5045012;28;20549;-81
2022/01/27 00:40:10;;;;;;;55.80;37.88;;;;;;;5.81;75.86;102340.47;5046269;28;20065;-81
2022/01/27 00:42:38;;;;;;;50.67;36.97;;;;;;;5.95;76.42;102368.94;5044741;28;20147;-81
2022/01/27 00:45:05;;;;;;;49.15;36.17;;;;;;;6.21;76.27;102412.66;5045187;28;20060;-82
2022/01/27 00:47:32;;;;;;;52.15;35.97;;;;;;;6.22;76.48;102405.63;5045251;28;20044;-82
2022/01/27 00:49:59;;;;;;;48.47;34.58;;;;;;;5.89;76.19;102366.50;5045131;28;20441;-83
2022/01/27 00:52:37;;;;;;;53.75;36.80;;;;;;;6.25;75.54;102403.72;5044772;28;20052;-81
2022/01/27 00:55:09;;;;;;;50.22;33.83;;;;;;;6.23;75.51;102396.78;5044668;28;20489;-81
2022/01/27 01:00:52;;;;;;;49.22;33.72;;;;;;;6.28;75.02;102400.09;5046270;28;20053;-81
2022/01/27 01:03:23;;;;;;;49.28;34.20;;;;;;;5.73;74.90;102317.09;5045559;28;20131;-82
2022/01/27 01:30:08;;;;;;;58.00;38.03;;;;;;;5.71;76.55;102357.59;5035342;28;20111;-83
2022/01/27 01:35:06;;;;;;;49.40;35.67;;;;;;;5.91;76.85;102385.78;5044471;28;20087;-83
2022/01/27 01:37:38;;;;;;;52.65;35.58;;;;;;;5.94;76.57;102388.31;5028661;28;20060;-80
2022/01/27 01:40:07;;;;;;;54.67;35.55;;;;;;;5.95;76.43;102376.84;5028588;28;20461;-80
2022/01/27 01:42:33;;;;;;;58.05;39.00;;;;;;;5.90;76.84;102389.34;5029743;28;20377;-82
2022/01/27 01:45:06;;;;;;;62.10;38.67;;;;;;;5.86;77.20;102387.75;5028307;28;20053;-80
2022/01/27 01:47:32;;;;;;;54.92;38.75;;;;;;;5.76;77.17;102371.44;5028187;28;20045;-82
2022/01/27 01:49:59;;;;;;;59.28;39.20;;;;;;;5.84;77.49;102392.22;5027506;28;20128;-80
2022/01/27 01:52:26;;;;;;;53.83;37.78;;;;;;;5.69;76.53;102359.44;5027723;28;20066;-81
2022/01/27 01:54:56;;;;;;;57.40;37.88;;;;;;;5.73;76.88;102361.88;5029062;28;20049;-82
2022/01/27 01:57:23;;;;;;;56.60;38.28;;;;;;;5.32;76.53;102282.72;5027737;28;20160;-83
2022/01/27 01:59:50;;;;;;;57.00;37.25;;;;;;;5.81;76.78;102366.84;5027643;28;20088;-79
2022/01/27 02:02:17;;;;;;;56.35;38.17;;;;;;;5.89;76.46;102374.44;5028547;28;20373;-81
2022/01/27 02:04:44;;;;;;;55.03;35.65;;;;;;;5.85;76.62;102381.63;5027785;28;20258;-81
2022/01/27 02:07:31;;;;;;;63.53;39.30;;;;;;;5.71;76.59;102369.00;5027769;28;20386;-82
2022/01/27 02:18:15;;;;;;;55.30;36.85;;;;;;;5.22;76.73;102249.78;5029033;28;20116;-81
2022/01/27 02:20:41;;;;;;;54.58;37.90;;;;;;;5.29;76.56;102272.34;5026645;28;20136;-81
2022/01/27 02:23:09;;;;;;;59.88;38.97;;;;;;;5.77;76.89;102339.72;5027023;28;20488;-81
2022/01/27 02:25:37;;;;;;;56.75;38.33;;;;;;;5.72;76.59;102311.88;5027555;28;20046;-83
2022/01/27 02:28:05;;;;;;;63.95;40.22;;;;;;;5.30;76.32;102258.22;5028311;28;20490;-83
2022/01/27 02:30:31;;;;;;;65.95;39.17;;;;;;;5.58;76.75;102307.16;5026319;28;20487;-82
2022/01/27 02:32:59;;;;;;;58.03;38.43;;;;;;;5.47;76.76;102293.56;5026460;28;20395;-81
2022/01/27 02:35:29;;;;;;;61.65;37.17;;;;;;;5.69;76.61;102333.94;5025976;28;20038;-81
2022/01/27 02:37:56;;;;;;;57.30;36.75;;;;;;;5.63;77.04;102339.47;5028016;28;20080;-83
2022/01/27 02:40:34;;;;;;;57.50;39.17;;;;;;;5.58;77.09;102346.66;5026687;28;20052;-81
2022/01/27 02:43:03;;;;;;;60.53;39.90;;;;;;;5.59;77.34;102355.47;5027679;28;20172;-80
2022/01/27 02:45:44;;;;;;;63.60;40.03;;;;;;;5.61;77.44;102349.19;5028054;28;20132;-80
2022/01/27 02:48:12;;;;;;;62.55;40.45;;;;;;;5.63;77.08;102363.19;5027222;28;20122;-81
2022/01/27 02:50:39;;;;;;;64.95;40.28;;;;;;;5.37;77.03;102322.06;5026813;28;20056;-82
2022/01/27 02:53:09;;;;;;;66.25;40.65;;;;;;;5.42;77.39;102337.69;5026653;28;20052;-82
2022/01/27 02:55:37;;;;;;;58.58;38.20;;;;;;;5.60;77.11;102350.09;5026803;28;20057;-82
2022/01/27 02:58:04;;;;;;;63.53;39.67;;;;;;;5.47;76.72;102338.34;5027255;28;20488;-84
2022/01/27 03:00:32;;;;;;;68.00;40.57;;;;;;;5.25;77.68;102326.03;5026579;28;20077;-82
2022/01/27 03:02:59;;;;;;;67.37;40.00;;;;;;;5.38;77.46;102338.72;5025286;28;20699;-83
2022/01/27 03:05:26;;;;;;;67.90;41.90;;;;;;;5.53;77.27;102330.19;5026383;28;20045;-81
2022/01/27 03:07:53;;;;;;;67.70;40.42;;;;;;;5.05;77.63;102252.22;5026476;28;20048;-82
2022/01/27 03:10:21;;;;;;;65.35;41.05;;;;;;;5.43;77.36;102328.84;5038537;28;20399;-82
2022/01/27 03:12:56;;;;;;;59.90;39.30;;;;;;;5.42;77.50;102330.63;5044757;28;20146;-81
2022/01/27 03:15:23;;;;;;;69.47;39.35;;;;;;;5.48;77.56;102330.38;5046193;28;20394;-83
2022/01/27 03:17:50;;;;;;;66.43;40.50;;;;;;;5.46;77.75;102326.09;5044819;28;20074;-81
2022/01/27 03:20:17;;;;;;;64.95;39.13;;;;;;;5.48;77.62;102326.88;5045211;28;20048;-83
2022/01/27 03:22:44;;;;;;;70.03;41.55;;;;;;;5.31;77.49;102302.06;5046252;28;20041;-80
2022/01/27 03:25:11;;;;;;;61.65;41.13;;;;;;;5.45;77.84;102322.59;5046215;28;20072;-82
2022/01/27 03:27:44;;;;;;;67.43;38.47;;;;;;;5.50;77.47;102322.41;5046270;28;20289;-81
2022/01/27 03:30:11;;;;;;;66.53;38.80;;;;;;;5.19;76.77;102280.63;5045431;28;20421;-81
2022/01/27 03:32:38;;;;;;;67.80;39.10;;;;;;;5.48;77.34;102318.97;5045040;28;20040;-81
2022/01/27 03:35:05;;;;;;;67.90;40.17;;;;;;;4.99;76.85;102236.69;5045965;28;20298;-82
2022/01/27 03:37:31;;;;;;;63.40;37.33;;;;;;;5.50;76.95;102322.41;5045726;28;20044;-80
2022/01/27 03:39:58;;;;;;;58.67;36.97;;;;;;;5.48;76.71;102333.00;5045976;28;20131;-81
2022/01/27 03:42:26;;;;;;;66.87;38.70;;;;;;;5.30;77.13;102321.44;5046005;28;20110;-80
2022/01/27 03:44:52;;;;;;;66.77;39.47;;;;;;;4.89;77.64;102279.13;5045865;28;20155;-82
2022/01/27 03:47:19;;;;;;;64.17;38.80;;;;;;;5.03;77.67;102312.00;5045590;28;20041;-81
2022/01/27 03:49:46;;;;;;;61.33;37.17;;;;;;;5.22;78.27;102325.28;5045669;28;20140;-81
2022/01/27 03:52:12;;;;;;;66.93;38.47;;;;;;;4.86;77.86;102260.84;5045193;28;20598;-80
2022/01/27 03:54:39;;;;;;;68.30;38.47;;;;;;;5.32;77.54;102330.13;5045213;28;20136;-82
2022/01/27 03:57:05;;;;;;;67.57;39.72;;;;;;;5.34;77.62;102344.09;5045461;28;20147;-82
2022/01/27 03:59:32;;;;;;;66.90;37.53;;;;;;;5.31;77.48;102322.28;5045493;28;20048;-81
2022/01/27 04:01:59;;;;;;;62.00;39.10;;;;;;;5.23;77.24;102309.44;5045180;28;20136;-82
2022/01/27 04:04:26;;;;;;;63.83;38.58;;;;;;;5.19;77.65;102305.19;5045169;28;20384;-81
2022/01/27 04:06:53;;;;;;;65.63;37.73;;;;;;;5.12;77.78;102315.13;5046339;28;20116;-81
2022/01/27 04:09:20;;;;;;;70.23;38.53;;;;;;;5.06;78.02;102303.97;5042220;28;20080;-81
2022/01/27 04:11:47;;;;;;;65.23;38.50;;;;;;;5.25;78.13;102312.84;5036955;28;20041;-83
2022/01/27 04:14:14;;;;;;;71.87;39.93;;;;;;;5.21;77.52;102307.78;5044341;28;20107;-83
2022/01/27 04:16:41;;;;;;;68.37;38.20;;;;;;;5.25;78.15;102341.81;5028809;28;20053;-82
2022/01/27 04:19:08;;;;;;;64.37;38.23;;;;;;;5.24;78.13;102341.88;5026193;28;20132;-82
2022/01/27 04:21:35;;;;;;;65.77;38.47;;;;;;;5.22;78.05;102348.97;5025150;28;20491;-83
2022/01/27 04:24:02;;;;;;;71.17;40.07;;;;;;;5.16;77.79;102343.97;5025164;28;20061;-82
2022/01/27 04:26:39;;;;;;;74.22;40.70;;;;;;;4.96;78.41;102314.00;5024539;28;20222;-81
2022/01/27 04:29:06;;;;;;;67.23;40.83;;;;;;;5.00;78.58;102314.72;5025061;28;20049;-83
2022/01/27 04:31:33;;;;;;;73.13;40.55;;;;;;;5.02;78.59;102318.16;5023759;28;20132;-81
2022/01/27 04:34:00;;;;;;;70.10;39.83;;;;;;;4.71;78.01;102270.19;5023378;28;20050;-82
2022/01/27 04:36:29;;;;;;;70.97;41.47;;;;;;;5.13;78.10;102334.41;5024133;28;20050;-81
2022/01/27 04:39:08;;;;;;;65.72;39.67;;;;;;;5.23;78.18;102359.47;5025024;28;20053;-81
2022/01/27 04:41:46;;;;;;;68.30;40.97;;;;;;;4.96;78.29;102311.34;5024953;28;20041;-80
2022/01/27 04:44:31;;;;;;;66.27;38.73;;;;;;;5.11;78.22;102328.34;5025079;28;20432;-81
2022/01/27 04:47:25;;;;;;;67.73;39.47;;;;;;;4.74;77.91;102279.72;5025132;28;20046;-81
2022/01/27 04:49:45;;;;;;;75.87;41.47;;;;;;;5.17;77.79;102348.28;5026211;28;20085;-81
2022/01/27 04:52:12;;;;;;;66.20;39.40;;;;;;;5.11;78.00;102357.28;5024771;28;20243;-82
2022/01/27 04:54:52;;;;;;;74.10;40.70;;;;;;;5.01;78.20;102345.41;5024947;28;20051;-81
2022/01/27 04:57:19;;;;;;;71.27;39.83;;;;;;;5.04;78.38;102353.19;5024542;28;20132;-81
2022/01/27 04:59:46;;;;;;;75.00;40.83;;;;;;;4.73;78.18;102299.03;5024980;28;20260;-80
2022/01/27 05:02:26;;;;;;;77.17;41.93;;;;;;;5.00;78.74;102354.19;5024959;28;20046;-80
2022/01/27 05:04:53;;;;;;;74.30;40.23;;;;;;;4.88;78.79;102335.34;5028730;28;20053;-81
2022/01/27 05:07:40;;;;;;;76.43;41.00;;;;;;;5.10;78.63;102347.69;5028841;28;20076;-80
2022/01/27 05:10:15;;;;;;;72.00;39.60;;;;;;;4.87;77.96;102317.81;5028526;28;20527;-81
2022/01/27 05:12:50;;;;;;;70.50;39.93;;;;;;;5.08;78.54;102346.88;5029929;28;20046;-81
2022/01/27 05:15:18;;;;;;;69.45;39.28;;;;;;;5.14;78.23;102363.28;5029199;28;20132;-82
2022/01/27 05:17:44;;;;;;;67.90;40.00;;;;;;;4.96;78.36;102332.41;5028584;28;20152;-80
2022/01/27 05:20:11;;;;;;;67.20;38.00;;;;;;;4.55;77.80;102262.91;5028508;28;20056;-80
2022/01/27 05:22:38;;;;;;;72.63;40.40;;;;;;;4.63;78.37;102292.41;5028218;28;20060;-81
2022/01/27 05:25:05;;;;;;;68.05;37.95;;;;;;;5.04;77.97;102366.34;5028567;28;20145;-81
2022/01/27 05:27:31;;;;;;;72.83;40.10;;;;;;;5.11;78.14;102357.28;5028058;28;20084;-80
2022/01/27 05:30:00;;;;;;;73.37;41.50;;;;;;;4.75;77.64;102285.84;5027966;28;20506;-80
2022/01/27 05:32:27;;;;;;;75.40;39.17;;;;;;;4.94;78.33;102323.72;5029489;28;20383;-81
2022/01/27 05:34:53;;;;;;;73.73;40.03;;;;;;;4.94;77.92;102323.72;5029574;28;20050;-81
2022/01/27 05:37:20;;;;;;;76.70;41.53;;;;;;;5.15;78.14;102353.63;5028182;28;20046;-81
2022/01/27 05:39:47;;;;;;;76.45;41.85;;;;;;;4.71;77.98;102274.59;5028660;28;20054;-81
2022/01/27 05:42:13;;;;;;;78.33;42.10;;;;;;;5.16;78.17;102350.06;5028076;28;20453;-81
2022/01/27 05:44:40;;;;;;;75.50;42.65;;;;;;;5.20;77.87;102354.31;5027845;28;20048;-81
2022/01/27 05:47:06;;;;;;;74.47;40.90;;;;;;;5.20;78.02;102358.72;5027480;28;20052;-81
2022/01/27 05:49:33;;;;;;;74.67;41.07;;;;;;;5.20;78.02;102364.00;5027481;28;20045;-81
2022/01/27 05:52:00;;;;;;;80.23;41.33;;;;;;;5.04;77.51;102343.50;5027138;28;20144;-82
2022/01/27 05:54:27;;;;;;;78.50;41.13;;;;;;;5.07;78.10;102353.06;5026515;28;20181;-81
2022/01/27 05:56:54;;;;;;;70.13;40.17;;;;;;;5.22;77.76;102381.44;5025692;28;20049;-82
2022/01/27 05:59:20;;;;;;;83.57;43.30;;;;;;;5.24;77.84;102379.63;5025488;28;20130;-81
2022/01/27 06:01:48;;;;;;;72.00;42.25;;;;;;;5.23;77.29;102354.19;5026369;28;20526;-80
2022/01/27 06:04:14;;;;;;;72.90;40.57;;;;;;;5.37;76.84;102373.88;5025245;28;20085;-81
2022/01/27 06:06:41;;;;;;;80.10;41.28;;;;;;;5.04;77.33;102324.22;5025792;28;20139;-81
2022/01/27 06:09:08;;;;;;;88.03;45.03;;;;;;;4.77;77.55;102274.34;5027708;28;20056;-82
2022/01/27 06:11:34;;;;;;;83.70;42.15;;;;;;;5.17;77.35;102346.53;5047108;28;20383;-81
2022/01/27 06:14:01;;;;;;;79.45;41.25;;;;;;;5.06;77.56;102335.56;5045004;28;20056;-82
2022/01/27 06:16:28;;;;;;;71.47;41.60;;;;;;;5.20;77.92;102356.94;5045922;28;20124;-81
2022/01/27 06:18:55;;;;;;;89.03;44.10;;;;;;;5.23;77.67;102363.88;5045954;28;20132;-83
2022/01/27 06:21:22;;;;;;;78.05;42.33;;;;;;;4.84;77.36;102306.56;5045288;28;20513;-82
2022/01/27 06:23:49;;;;;;;80.10;41.07;;;;;;;5.21;77.38;102377.09;5046596;28;20115;-80
2022/01/27 06:26:16;;;;;;;73.63;41.00;;;;;;;4.79;77.62;102319.03;5032019;28;20050;-81
2022/01/27 06:28:42;;;;;;;81.00;43.35;;;;;;;5.21;77.50;102374.44;5025349;28;20247;-82
2022/01/27 06:31:09;;;;;;;74.07;41.00;;;;;;;4.81;77.84;102307.53;5024997;28;20260;-81
2022/01/27 06:33:39;;;;;;;85.23;42.90;;;;;;;4.90;77.59;102298.41;5025315;28;20053;-82
2022/01/27 06:36:06;;;;;;;78.18;41.67;;;;;;;5.30;76.81;102384.63;5025163;28;20269;-82
2022/01/27 06:38:32;;;;;;;70.63;39.60;;;;;;;5.29;77.11;102387.31;5024846;28;20061;-81
2022/01/27 06:40:59;;;;;;;72.90;38.13;;;;;;;5.10;77.28;102360.84;5025053;28;20053;-81
2022/01/27 06:43:26;;;;;;;71.80;40.40;;;;;;;5.25;76.82;102381.31;5025093;28;20049;-83
2022/01/27 06:45:53;;;;;;;73.63;40.95;;;;;;;5.34;76.85;102396.78;5024467;28;20049;-82
2022/01/27 06:48:20;;;;;;;80.85;42.47;;;;;;;5.34;77.15;102390.66;5025219;28;20144;-80
2022/01/27 06:50:52;;;;;;;74.55;39.95;;;;;;;5.20;76.63;102375.38;5024926;28;20049;-81
2022/01/27 06:53:19;;;;;;;84.38;44.08;;;;;;;5.42;76.13;102398.25;5024736;28;20132;-81
2022/01/27 06:55:47;;;;;;;75.63;41.87;;;;;;;5.26;76.12;102369.00;5024361;28;20139;-82
2022/01/27 06:58:13;;;;;;;73.57;41.55;;;;;;;5.07;76.31;102338.13;5024659;28;20077;-80
2022/01/27 07:00:40;;;;;;;86.82;44.45;;;;;;;5.20;76.80;102356.94;5024602;28;20050;-83
2022/01/27 07:03:07;;;;;;;83.65;43.65;;;;;;;4.10;76.32;102192.69;5023987;28;20317;-83
2022/01/27 07:05:34;;;;;;;80.72;42.42;;;;;;;5.32;76.85;102403.88;5024244;28;20502;-81
2022/01/27 07:08:01;;;;;;;74.57;41.88;;;;;;;5.03;77.09;102354.97;5025632;28;20123;-82
2022/01/27 07:10:28;;;;;;;77.43;39.83;;;;;;;5.11;76.58;102367.81;5024637;28;20041;-81
2022/01/27 07:12:55;;;;;;;75.65;41.58;;;;;;;5.17;76.84;102388.66;5023398;28;20502;-82
2022/01/27 07:15:22;;;;;;;79.85;41.40;;;;;;;5.38;76.78;102428.25;5024689;28;20300;-82
2022/01/27 07:17:48;;;;;;;78.95;41.13;;;;;;;5.39;76.63;102414.16;5024312;28;20235;-81
2022/01/27 07:20:17;;;;;;;81.30;41.80;;;;;;;5.38;76.25;102404.56;5024046;28;20060;-80
2022/01/27 07:22:44;;;;;;;76.80;40.55;;;;;;;5.09;76.84;102359.13;5024597;28;20075;-80
2022/01/27 07:25:11;;;;;;;80.10;41.85;;;;;;;5.39;76.92;102409.78;5023695;28;20490;-82
2022/01/27 07:27:37;;;;;;;77.95;41.05;;;;;;;5.43;76.32;102416.63;5023939;28;20542;-80
2022/01/27 07:30:05;;;;;;;79.78;41.33;;;;;;;5.35;76.35;102393.22;5025006;28;20084;-81
2022/01/27 07:32:32;;;;;;;77.75;42.83;;;;;;;5.20;76.38;102361.38;5026409;28;20195;-80
2022/01/27 07:35:00;;;;;;;73.22;39.75;;;;;;;4.79;76.56;102301.47;5026357;28;20160;-84
2022/01/27 07:37:27;;;;;;;81.72;41.33;;;;;;;5.19;76.33;102371.00;5028497;28;20049;-81
2022/01/27 07:39:54;;;;;;;80.20;41.88;;;;;;;5.30;76.41;102384.63;5034471;28;20049;-83
2022/01/27 07:42:20;;;;;;;80.47;40.13;;;;;;;5.46;76.33;102410.38;5042855;28;20085;-84
2022/01/27 07:44:47;;;;;;;77.43;42.22;;;;;;;5.24;76.42;102369.09;5031240;28;20085;-81
2022/01/27 07:47:14;;;;;;;77.75;41.20;;;;;;;5.49;76.29;102415.56;5029628;28;20376;-82
2022/01/27 07:49:40;;;;;;;80.40;42.38;;;;;;;5.35;76.23;102392.38;5027256;28;20061;-82
2022/01/27 07:52:10;;;;;;;86.70;42.83;;;;;;;5.50;75.67;102419.88;5024276;28;20060;-82
2022/01/27 07:54:37;;;;;;;75.57;39.55;;;;;;;5.56;75.88;102414.41;5023684;28;20137;-80
2022/01/27 07:57:04;;;;;;;78.65;40.33;;;;;;;5.65;75.48;102424.56;5023681;28;20590;-81
2022/01/27 07:59:32;;;;;;;73.18;39.10;;;;;;;5.58;75.63;102430.97;5024231;28;20055;-82
2022/01/27 08:01:58;;;;;;;66.90;34.67;;;;;;;5.55;75.51;102416.16;5023957;28;20061;-81
2022/01/27 08:04:26;;;;;;;62.72;35.47;;;;;;;5.58;75.54;102428.34;5023850;28;20055;-82
2022/01/27 08:06:52;;;;;;;61.63;33.47;;;;;;;5.55;75.66;102431.97;5023783;28;20168;-81
2022/01/27 08:09:19;;;;;;;57.03;30.77;;;;;;;5.56;75.85;102430.19;5024069;28;20041;-81
2022/01/27 08:11:46;;;;;;;46.97;26.70;;;;;;;5.69;74.90;102434.06;5024221;28;20041;-82
2022/01/27 08:14:12;;;;;;;46.25;27.60;;;;;;;4.79;74.58;102301.47;5023583;28;20668;-80
2022/01/27 08:16:39;;;;;;;46.47;28.23;;;;;;;5.49;74.84;102415.56;5025374;28;20060;-80
2022/01/27 08:19:06;;;;;;;48.42;28.17;;;;;;;5.54;75.01;102427.63;5024726;28;20100;-81
2022/01/27 08:21:33;;;;;;;49.55;26.25;;;;;;;5.67;74.70;102441.16;5024801;28;20045;-81
2022/01/27 08:24:00;;;;;;;55.60;31.83;;;;;;;5.58;74.31;102441.50;5026483;28;20149;-83
2022/01/27 08:26:37;;;;;;;50.75;29.48;;;;;;;5.53;75.08;102427.66;5025037;28;20140;-82
2022/01/27 08:32:17;;;;;;;47.92;27.15;;;;;;;5.50;74.53;102417.25;5026367;28;20384;-81
2022/01/27 08:34:37;;;;;;;47.15;27.15;;;;;;;5.66;74.76;102455.28;5004736;28;20136;-83
2022/01/27 08:37:06;;;;;;;50.58;28.67;;;;;;;5.40;74.13;102406.22;5023047;28;20586;-82
2022/01/27 08:39:34;;;;;;;62.72;33.05;;;;;;;5.71;74.55;102457.72;5008899;28;20449;-83
2022/01/27 08:42:01;;;;;;;71.93;40.13;;;;;;;5.02;74.87;102342.69;5009429;28;20518;-82
2022/01/27 08:44:28;;;;;;;73.93;39.30;;;;;;;5.64;75.17;102462.38;5010531;28;20054;-82
2022/01/27 08:46:55;;;;;;;76.25;38.92;;;;;;;5.47;75.36;102423.50;5009262;28;20128;-81
2022/01/27 08:49:25;;;;;;;73.38;37.90;;;;;;;5.55;75.03;102444.28;5009654;28;20046;-82
2022/01/27 08:52:11;;;;;;;75.72;39.50;;;;;;;5.50;75.11;102446.22;5009645;28;20058;-83
2022/01/27 08:54:38;;;;;;;70.22;39.03;;;;;;;5.53;74.91;102456.66;5021046;28;20487;-81
2022/01/27 08:57:05;;;;;;;68.05;38.92;;;;;;;5.67;74.87;102464.03;5028821;28;20053;-82
2022/01/27 08:59:33;;;;;;;69.88;37.28;;;;;;;5.46;74.49;102440.25;5028841;28;20163;-82
2022/01/27 09:02:00;;;;;;;62.65;35.88;;;;;;;5.57;75.52;102471.44;5028747;28;20152;-82
2022/01/27 09:04:27;;;;;;;63.40;35.22;;;;;;;5.30;74.99;102436.47;5028419;28;20061;-82
2022/01/27 09:06:53;;;;;;;62.50;35.20;;;;;;;5.47;75.02;102464.78;5028664;28;20085;-82
2022/01/27 09:09:20;;;;;;;67.55;36.47;;;;;;;5.48;75.35;102474.41;5032284;28;20048;-83
2022/01/27 09:11:47;;;;;;;69.35;34.85;;;;;;;5.38;75.19;102449.34;5048996;28;20052;-82
2022/01/27 09:14:14;;;;;;;68.97;34.20;;;;;;;5.15;75.57;102448.41;5048417;28;20056;-84
2022/01/27 09:16:42;;;;;;;65.00;35.25;;;;;;;5.44;75.46;102488.63;5049169;28;20052;-82
2022/01/27 09:19:29;;;;;;;65.40;35.63;;;;;;;5.29;75.64;102459.31;5049434;28;20060;-83
2022/01/27 09:21:56;;;;;;;63.25;34.20;;;;;;;5.28;75.84;102452.31;5049289;28;20049;-83
2022/01/27 09:24:28;;;;;;;57.58;32.72;;;;;;;5.13;75.10;102423.91;5049011;28;20045;-80
2022/01/27 09:27:01;;;;;;;55.65;32.00;;;;;;;5.24;75.62;102442.81;5048238;28;20059;-83
2022/01/27 09:29:28;;;;;;;68.45;35.13;;;;;;;5.49;74.69;102481.41;5048065;28;20057;-83
2022/01/27 09:31:55;;;;;;;67.80;35.70;;;;;;;5.45;75.49;102477.16;5047883;28;20542;-83
2022/01/27 09:34:22;;;;;;;57.58;32.63;;;;;;;5.41;75.88;102478.19;5047985;28;20049;-82
2022/01/27 09:36:52;;;;;;;66.85;34.60;;;;;;;4.42;75.41;102305.44;5048085;28;20056;-83
2022/01/27 09:39:20;;;;;;;63.58;34.22;;;;;;;4.93;75.62;102385.19;5048276;28;20110;-84
2022/01/27 09:41:50;;;;;;;67.90;33.72;;;;;;;5.34;75.67;102444.19;5049106;28;20438;-83
2022/01/27 09:44:17;;;;;;;68.10;34.88;;;;;;;5.51;75.02;102469.91;5047924;28;20053;-82
2022/01/27 09:46:46;;;;;;;64.45;33.25;;;;;;;5.16;75.21;102408.00;5048515;28;20479;-80
2022/01/27 09:49:16;;;;;;;64.32;33.67;;;;;;;5.24;75.82;102424.38;5047062;28;20144;-83
2022/01/27 09:51:45;;;;;;;59.72;33.10;;;;;;;5.14;75.57;102392.25;5048930;28;20047;-83
2022/01/27 09:54:14;;;;;;;63.13;34.00;;;;;;;5.45;75.12;102424.47;5047512;28;20053;-82
2022/01/27 09:56:42;;;;;;;70.75;36.60;;;;;;;5.40;74.89;102440.47;5048157;28;20059;-83
2022/01/27 09:59:14;;;;;;;60.33;34.13;;;;;;;4.19;74.98;102234.41;5048071;28;20053;-83
2022/01/27 10:02:00;;;;;;;58.95;30.52;;;;;;;5.59;74.91;102464.34;5047278;28;20335;-82
2022/01/27 10:04:49;;;;;;;50.72;30.35;;;;;;;5.62;73.84;102461.56;5047754;28;20098;-83
2022/01/27 10:07:18;;;;;;;54.75;31.25;;;;;;;5.33;74.28;102429.28;5047739;28;20045;-84
2022/01/27 10:10:04;;;;;;;56.33;31.40;;;;;;;5.61;73.83;102457.22;5041220;28;20091;-82
2022/01/27 10:12:35;;;;;;;57.57;32.77;;;;;;;5.13;74.24;102368.63;5027293;28;20056;-83
2022/01/27 10:15:12;;;;;;;64.23;33.37;;;;;;;5.23;73.93;102383.16;5028752;28;20549;-83
2022/01/27 10:18:08;;;;;;;59.87;33.47;;;;;;;5.67;73.86;102451.72;5027757;28;20037;-83
2022/01/27 10:20:55;;;;;;;64.87;34.60;;;;;;;5.73;74.50;102456.75;5027219;28;20448;-82
2022/01/27 10:23:26;;;;;;;70.78;34.75;;;;;;;5.60;74.27;102431.78;5010616;28;20132;-82
2022/01/27 10:25:57;;;;;;;62.23;32.77;;;;;;;5.53;74.55;102406.59;5027599;28;20133;-85
2022/01/27 10:28:35;;;;;;;68.90;34.70;;;;;;;5.43;74.74;102389.44;5028590;28;20386;-85
2022/01/27 10:31:26;;;;;;;58.83;31.90;;;;;;;5.54;74.45;102397.78;5028456;28;20045;-83
2022/01/27 10:34:04;;;;;;;62.17;33.22;;;;;;;5.83;73.85;102424.78;5017757;28;20368;-82
2022/01/27 10:36:36;;;;;;;69.65;33.25;;;;;;;5.85;73.43;102426.44;5028897;28;20072;-82
2022/01/27 10:39:04;;;;;;;69.23;35.53;;;;;;;5.77;74.14;102425.84;5027511;28;20491;-84
2022/01/27 10:41:34;;;;;;;73.93;37.17;;;;;;;5.50;74.35;102361.94;5028647;28;20637;-83
2022/01/27 10:44:17;;;;;;;78.03;38.43;;;;;;;5.43;74.07;102355.19;5027585;28;20052;-83
2022/01/27 10:47:07;;;;;;;77.10;38.93;;;;;;;5.89;74.33;102425.34;5027086;28;20624;-82
2022/01/27 10:49:38;;;;;;;75.47;36.05;;;;;;;5.41;74.77;102349.13;5027494;28;20050;-82
2022/01/27 10:52:10;;;;;;;86.40;40.08;;;;;;;5.84;74.76;102421.19;5027244;28;20136;-83
2022/01/27 10:54:49;;;;;;;87.45;39.58;;;;;;;5.79;75.15;102414.31;5026872;28;20095;-83
2022/01/27 10:57:16;;;;;;;74.77;39.07;;;;;;;5.70;75.28;102393.59;5027382;28;20049;-82
2022/01/27 10:59:43;;;;;;;83.13;40.00;;;;;;;5.59;74.94;102364.22;5028662;28;20235;-83
2022/01/27 11:02:12;;;;;;;74.80;38.13;;;;;;;5.75;75.17;102381.13;5025422;28;20136;-85
2022/01/27 11:04:43;;;;;;;76.53;39.03;;;;;;;5.83;75.13;102382.59;5026562;28;20107;-84
2022/01/27 11:07:12;;;;;;;78.70;36.78;;;;;;;5.76;75.22;102372.28;5031887;28;20136;-83
2022/01/27 11:09:41;;;;;;;78.40;37.40;;;;;;;5.67;75.70;102354.22;5038607;28;20483;-83
2022/01/27 11:12:16;;;;;;;72.28;36.90;;;;;;;5.64;75.42;102335.03;5048554;28;20133;-83
2022/01/27 11:14:44;;;;;;;72.88;37.63;;;;;;;5.64;75.36;102335.03;5048007;28;20049;-82
2022/01/27 11:17:17;;;;;;;85.85;38.55;;;;;;;5.84;74.99;102363.22;5047096;28;20048;-82
2022/01/27 11:27:25;;;;;;;86.18;41.90;;;;;;;5.96;75.62;102394.38;5047279;28;20044;-82
2022/01/27 11:30:11;;;;;;;78.07;37.85;;;;;;;5.92;75.66;102382.19;5047644;28;20048;-83
2022/01/27 11:33:01;;;;;;;72.25;36.85;;;;;;;6.10;75.45;102397.31;5046052;28;20140;-83
2022/01/27 11:36:08;;;;;;;72.82;34.92;;;;;;;6.02;75.07;102372.16;5045709;28;20059;-82
2022/01/27 11:38:35;;;;;;;76.18;35.53;;;;;;;6.15;74.57;102383.94;5046240;28;20052;-81
2022/01/27 11:41:01;;;;;;;70.38;35.78;;;;;;;5.73;74.54;102305.69;5047161;28;20315;-83
2022/01/27 11:43:35;;;;;;;69.07;37.63;;;;;;;6.28;74.88;102394.81;5046203;28;20144;-81
2022/01/27 11:46:18;;;;;;;60.58;35.08;;;;;;;6.32;74.25;102383.22;5046234;28;20144;-85
2022/01/27 11:48:45;;;;;;;68.18;34.75;;;;;;;6.23;74.61;102370.41;5046256;28;20054;-82
2022/01/27 11:51:14;;;;;;;63.47;36.00;;;;;;;6.32;74.10;102370.88;5047593;28;20051;-84
2022/01/27 11:53:51;;;;;;;69.80;35.65;;;;;;;6.11;74.01;102351.53;5046258;28;20142;-83
2022/01/27 11:56:24;;;;;;;59.28;33.53;;;;;;;6.11;75.21;102367.38;5045369;28;20398;-84
2022/01/27 11:58:56;;;;;;;66.50;34.33;;;;;;;4.99;74.80;102178.78;5046097;28;20099;-81
2022/01/27 12:01:35;;;;;;;62.55;33.42;;;;;;;6.01;75.96;102371.31;5045864;28;20502;-83
2022/01/27 12:04:05;;;;;;;63.92;34.45;;;;;;;6.00;76.19;102369.59;5047865;28;20456;-84
2022/01/27 12:06:36;;;;;;;64.68;34.30;;;;;;;6.08;75.76;102370.13;5036328;28;20064;-83
2022/01/27 12:09:21;;;;;;;57.40;32.33;;;;;;;6.10;75.81;102365.66;5031688;28;20052;-83
2022/01/27 12:11:59;;;;;;;71.10;34.10;;;;;;;6.12;75.81;102362.97;5048366;28;20060;-79
2022/01/27 12:14:48;;;;;;;66.05;34.38;;;;;;;4.90;74.96;102151.03;5048877;28;20294;-86
2022/01/27 12:17:16;;;;;;;55.95;32.00;;;;;;;6.15;75.43;102342.59;5037030;28;20141;-81
2022/01/27 12:20:02;;;;;;;62.60;34.10;;;;;;;6.23;75.22;102344.91;5048405;28;20132;-83
2022/01/27 12:22:47;;;;;;;64.15;33.20;;;;;;;6.24;74.99;102346.63;5050155;28;20072;-83
2022/01/27 12:25:15;;;;;;;62.58;32.20;;;;;;;6.25;75.16;102331.66;5048487;28;20055;-83
2022/01/27 12:27:49;;;;;;;63.17;33.42;;;;;;;6.09;74.96;102299.78;5048240;28;20088;-83